Terminal Aerodrome Forecast
Issued by NWS North Platte, NE

Current Version | Previous Version | Text Only | Print | Product List | Glossary On
Versions: 1 2 3 4 5 6 7 8 9 10 11 12 13 14 15 16
723
FTUS43 KLBF 211121
TAFVTN
TAF
KVTN 211121Z 2112/2212 16013KT P6SM FEW250 WS020/17040KT
     FM211600 17018G25KT P6SM FEW200
     FM220000 16012KT P6SM SKC
     FM220200 15010KT P6SM SKC
     FM220600 16010KT P6SM SKC WS020/18040KT=

USA.gov is the U.S. government's official web portal to all federal, state and local government web resources and services.